Time;durP1;ratioP1;P1;durP2;ratioP2;P2;SDS_P1;SDS_P2;PMS_P1;PMS_P2;Temp;Humidity;BMP_temperature;BMP_pressure;BME280_temperature;BME280_humidity;BME280_pressure;Samples;Min_cycle;Max_cycle;Signal;HPM_P1;HPM_P2
2022/12/02 19:13:41;;;;;;;4.00;1.40;;;;;;;-0.37;100.00;102148.47;1769943;80;21558;-79
2022/12/02 19:16:25;;;;;;;4.50;1.65;;;;;;;-0.32;100.00;102146.13;1748016;80;21927;-79
2022/12/02 19:19:10;;;;;;;5.10;2.33;;;;;;;-0.26;100.00;102144.13;1741220;80;21715;-78
2022/12/02 19:21:55;;;;;;;10.80;2.45;;;;;;;-0.22;100.00;102153.05;1768873;80;21425;-82
2022/12/02 19:24:40;;;;;;;5.78;1.60;;;;;;;-0.21;100.00;102147.16;1751396;81;21290;-82
2022/12/02 19:27:25;;;;;;;5.50;1.95;;;;;;;-0.19;100.00;102151.87;1717071;80;21005;-78
2022/12/02 19:30:10;;;;;;;5.87;2.05;;;;;;;-0.20;100.00;102150.17;1739382;80;21050;-79
2022/12/02 19:32:57;;;;;;;4.92;1.57;;;;;;;-0.18;100.00;102150.02;1745029;81;21041;-82
2022/12/02 19:35:42;;;;;;;4.90;2.10;;;;;;;-0.19;100.00;102156.41;1730742;82;21053;-79
2022/12/02 19:38:26;;;;;;;5.33;2.35;;;;;;;-0.20;100.00;102154.20;1743734;81;21050;-79
2022/12/02 19:41:11;;;;;;;7.22;1.27;;;;;;;-0.22;100.00;102157.58;1727102;81;21068;-81
2022/12/02 19:43:57;;;;;;;4.55;1.85;;;;;;;-0.21;100.00;102172.69;1740669;81;21425;-79
2022/12/02 19:46:43;;;;;;;5.62;1.85;;;;;;;-0.23;100.00;102158.57;1675155;84;21408;-82
2022/12/02 19:49:28;;;;;;;2.92;1.87;;;;;;;-0.24;100.00;102161.77;1680158;84;21477;-81
2022/12/02 19:52:12;;;;;;;2.95;1.60;;;;;;;-0.24;100.00;102162.28;1708167;82;21107;-81
2022/12/02 19:54:57;;;;;;;2.83;1.37;;;;;;;-0.26;100.00;102168.31;1685384;83;21025;-79
2022/12/02 19:57:43;;;;;;;2.67;1.47;;;;;;;-0.27;100.00;102158.59;1679527;84;20986;-79
2022/12/02 20:00:27;;;;;;;3.60;1.37;;;;;;;-0.26;100.00;102164.28;1667808;84;21030;-79
2022/12/02 20:03:12;;;;;;;4.35;1.22;;;;;;;-0.26;100.00;102162.94;1669281;84;21443;-81
2022/12/02 20:05:59;;;;;;;3.12;1.70;;;;;;;-0.26;100.00;102168.31;1704636;83;21048;-81
2022/12/02 20:08:44;;;;;;;4.37;1.67;;;;;;;-0.27;100.00;102162.62;1682948;84;21439;-81
2022/12/02 20:11:30;;;;;;;3.25;1.70;;;;;;;-0.29;100.00;102159.25;1678203;84;21011;-80
2022/12/02 20:14:15;;;;;;;3.05;1.50;;;;;;;-0.31;100.00;102166.63;1687795;84;21057;-81
2022/12/02 20:16:59;;;;;;;1.60;1.10;;;;;;;-0.31;100.00;102161.26;1709719;83;21007;-82
2022/12/02 20:19:43;;;;;;;3.72;1.80;;;;;;;-0.32;100.00;102164.93;1718883;83;21011;-82
2022/12/02 20:22:28;;;;;;;4.58;1.70;;;;;;;-0.32;100.00;102168.96;1714316;83;21063;-78
2022/12/02 20:25:12;;;;;;;4.67;1.80;;;;;;;-0.34;100.00;102165.63;1705359;83;21138;-78
2022/12/02 20:27:59;;;;;;;1.95;1.32;;;;;;;-0.33;100.00;102168.63;1703390;83;20990;-78
2022/12/02 20:30:44;;;;;;;3.35;1.65;;;;;;;-0.35;100.00;102171.98;1725097;83;21029;-78
2022/12/02 20:33:28;;;;;;;2.17;1.50;;;;;;;-0.34;100.00;102176.37;1717713;81;21013;-79
2022/12/02 20:36:13;;;;;;;3.47;1.52;;;;;;;-0.36;100.00;102171.66;1697371;83;20978;-82
2022/12/02 20:38:58;;;;;;;3.27;1.45;;;;;;;-0.36;100.00;102175.69;1677748;84;21061;-78
2022/12/02 20:41:42;;;;;;;4.80;2.08;;;;;;;-0.36;100.00;102174.34;1682246;83;21636;-80
2022/12/02 20:44:27;;;;;;;1.70;1.42;;;;;;;-0.37;100.00;102175.33;1684220;84;21042;-77
2022/12/02 20:47:13;;;;;;;2.90;1.17;;;;;;;-0.38;100.00;102175.84;1685270;84;21091;-79
2022/12/02 20:49:57;;;;;;;3.92;1.52;;;;;;;-0.38;100.00;102175.01;1674213;85;21034;-77
2022/12/02 20:52:43;;;;;;;7.78;1.65;;;;;;;-0.39;100.00;102173.34;1693287;83;21021;-76
2022/12/02 20:55:27;;;;;;;4.08;1.55;;;;;;;-0.39;100.00;102163.94;1711783;83;21096;-76
2022/12/02 20:58:12;;;;;;;4.22;1.50;;;;;;;-0.41;100.00;102174.00;1686084;83;21049;-79
2022/12/02 21:00:57;;;;;;;2.47;1.67;;;;;;;-0.40;100.00;102168.95;1678147;84;21577;-77
2022/12/02 21:03:41;;;;;;;3.02;1.30;;;;;;;-0.39;100.00;102174.69;1669711;84;21014;-79
2022/12/02 21:06:27;;;;;;;1.57;1.20;;;;;;;-0.40;100.00;102171.13;1669640;84;21015;-76
2022/12/02 21:09:14;;;;;;;1.45;1.05;;;;;;;-0.40;100.00;102174.33;1661269;83;21472;-77
2022/12/02 21:11:58;;;;;;;4.47;1.42;;;;;;;-0.41;100.00;102173.49;1695818;83;21109;-78
2022/12/02 21:14:42;;;;;;;2.92;1.25;;;;;;;-0.41;100.00;102172.15;1695766;83;20997;-79
2022/12/02 21:17:29;;;;;;;3.95;1.30;;;;;;;-0.40;100.00;102170.30;1676508;84;21023;-81
2022/12/02 21:20:16;;;;;;;3.95;1.17;;;;;;;-0.42;100.00;102174.98;1669369;84;21034;-82
2022/12/02 21:23:03;;;;;;;5.05;1.25;;;;;;;-0.42;100.00;102180.36;1693379;84;21030;-81
2022/12/02 21:25:48;;;;;;;4.60;1.37;;;;;;;-0.44;100.00;102172.48;1683349;83;21026;-77
2022/12/02 21:28:32;;;;;;;4.60;1.72;;;;;;;-0.45;100.00;102178.34;1679830;83;21059;-80
2022/12/02 21:31:17;;;;;;;4.12;1.42;;;;;;;-0.47;100.00;102179.03;1703683;83;21597;-78
2022/12/02 21:34:02;;;;;;;6.30;1.70;;;;;;;-0.46;100.00;102176.67;1695951;82;20979;-77
2022/12/02 21:36:46;;;;;;;5.47;1.98;;;;;;;-0.46;100.00;102171.80;1694412;83;21033;-77
2022/12/02 21:39:31;;;;;;;3.00;0.82;;;;;;;-0.47;100.00;102170.97;1688573;84;21435;-77
2022/12/02 21:42:16;;;;;;;4.33;1.87;;;;;;;-0.47;100.00;102172.31;1667494;83;21041;-80
2022/12/02 21:45:00;;;;;;;4.90;1.42;;;;;;;-0.46;100.00;102178.02;1696336;83;21066;-77
2022/12/02 21:47:45;;;;;;;3.77;1.82;;;;;;;-0.48;100.00;102173.30;1682231;84;21005;-80
2022/12/02 21:50:29;;;;;;;2.67;1.50;;;;;;;-0.49;100.00;102179.69;1667078;84;21074;-80
2022/12/02 21:53:14;;;;;;;3.37;1.52;;;;;;;-0.51;100.00;102183.03;1669623;83;21017;-77
2022/12/02 21:55:58;;;;;;;1.70;1.40;;;;;;;-0.52;100.00;102178.69;1686925;83;21015;-80
2022/12/02 21:58:44;;;;;;;5.42;1.80;;;;;;;-0.52;100.00;102171.97;1703679;82;21470;-80
